Time;durP1;ratioP1;P1;durP2;ratioP2;P2;SDS_P1;SDS_P2;PMS_P1;PMS_P2;Temp;Humidity;BMP_temperature;BMP_pressure;BME280_temperature;BME280_humidity;BME280_pressure;Samples;Min_cycle;Max_cycle;Signal;HPM_P1;HPM_P2
2022/03/24 00:02:16;;;;;;;15.60;13.10;;;;;;-10129.49;;;;106061;1287;65561;-31
2022/03/24 00:04:43;;;;;;;13.50;12.10;;;;;;-10005.19;;;;106041;1287;65683;-31
2022/03/24 00:07:11;;;;;;;15.20;13.00;;;;;;-10005.19;;;;106079;1287;66345;-32
2022/03/24 00:09:39;;;;;;;13.50;12.10;;;;;;-10129.49;;;;106037;1288;65901;-31
2022/03/24 00:12:08;;;;;;;14.10;12.60;;;;;;-10129.49;;;;106002;1287;65821;-34
2022/03/24 00:14:35;;;;;;;14.30;12.30;;;;;;-10129.49;;;;106058;1287;65716;-35
2022/03/24 00:17:02;;;;;;;14.40;12.70;;;;;;-10129.49;;;;106014;1287;65851;-32
2022/03/24 00:19:30;;;;;;;13.90;12.30;;;;;;-10129.49;;;;106087;1287;65587;-31
2022/03/24 00:21:57;;;;;;;15.60;13.30;;;;;;-10005.19;;;;105855;1288;65815;-39
2022/03/24 00:24:25;;;;;;;12.70;11.20;;;;;;-10129.49;;;;106089;1287;65696;-36
2022/03/24 00:27:10;;;;;;;15.00;11.80;;;;;;-10502.40;;;;106016;1287;67232;-36
2022/03/24 00:29:38;;;;;;;14.00;12.00;;;;;;-10378.10;;;;105950;1288;65809;-36
2022/03/24 00:32:06;;;;;;;15.20;12.70;;;;;;-10378.10;;;;106037;1287;65601;-34
2022/03/24 00:34:33;;;;;;;14.60;12.90;;;;;;-10129.49;;;;106018;1287;65580;-36
2022/03/24 00:37:02;;;;;;;13.30;11.80;;;;;;-10253.80;;;;106037;1287;66252;-31
2022/03/24 00:39:34;;;;;;;13.40;11.50;;;;;;-10129.49;;;;105897;1288;65749;-31
2022/03/24 00:42:11;;;;;;;13.80;12.40;;;;;;-10005.19;;;;106080;1287;65588;-37
2022/03/24 00:44:44;;;;;;;13.20;11.40;;;;;;-10005.19;;;;106025;1287;65898;-37
2022/03/24 00:47:16;;;;;;;14.40;11.60;;;;;;-10129.49;;;;106047;1287;65717;-37
2022/03/24 00:49:43;;;;;;;14.60;11.60;;;;;;-10253.80;;;;106035;1287;65595;-37
2022/03/24 00:52:11;;;;;;;12.70;11.40;;;;;;-10253.80;;;;106003;1287;65734;-36
2022/03/24 00:54:38;;;;;;;13.70;12.20;;;;;;-10253.80;;;;106109;1287;65595;-36
2022/03/24 00:57:07;;;;;;;13.60;11.90;;;;;;-10129.49;;;;106064;1287;66066;-36
2022/03/24 00:59:34;;;;;;;14.30;11.70;;;;;;-10253.80;;;;106062;1286;65611;-35
2022/03/24 01:02:02;;;;;;;13.10;11.80;;;;;;-10253.80;;;;106018;1287;65690;-37
2022/03/24 01:04:30;;;;;;;13.30;11.60;;;;;;-10129.49;;;;106050;1287;65665;-39
2022/03/24 01:06:57;;;;;;;13.00;11.40;;;;;;-10253.80;;;;106036;1287;65665;-38
2022/03/24 01:09:24;;;;;;;13.60;11.70;;;;;;-10378.10;;;;105997;1287;65735;-37
2022/03/24 01:11:51;;;;;;;12.10;10.70;;;;;;-10129.49;;;;106036;1287;65699;-36
2022/03/24 01:14:18;;;;;;;12.50;11.20;;;;;;-10005.19;;;;106034;1287;65624;-37
2022/03/24 01:16:45;;;;;;;13.00;11.60;;;;;;-10129.49;;;;106038;1287;65757;-32
2022/03/24 01:19:14;;;;;;;13.60;11.40;;;;;;-10378.10;;;;106052;1287;66032;-31
2022/03/24 01:21:42;;;;;;;13.40;12.00;;;;;;-10253.80;;;;105989;1287;65719;-31
2022/03/24 01:24:09;;;;;;;12.80;11.10;;;;;;-10129.49;;;;106030;1287;65736;-31
2022/03/24 01:26:36;;;;;;;12.60;11.20;;;;;;-10005.19;;;;105839;1287;65730;-32
2022/03/24 01:29:04;;;;;;;13.10;11.60;;;;;;-10253.80;;;;106024;1287;65815;-32
2022/03/24 01:31:33;;;;;;;12.50;11.00;;;;;;-10253.80;;;;105963;1287;65780;-40
2022/03/24 01:34:00;;;;;;;12.30;11.00;;;;;;-10253.80;;;;105895;1287;65431;-35
2022/03/24 01:36:28;;;;;;;12.80;11.10;;;;;;-10253.80;;;;106028;1287;65518;-32
2022/03/24 01:38:55;;;;;;;12.90;11.50;;;;;;-10129.49;;;;106030;1287;65592;-32
2022/03/24 01:41:22;;;;;;;12.70;11.30;;;;;;-10129.49;;;;106028;1287;65584;-32
2022/03/24 01:43:49;;;;;;;11.80;10.40;;;;;;-10253.80;;;;105807;1287;65722;-32
2022/03/24 01:46:23;;;;;;;12.50;11.20;;;;;;-10502.40;;;;106015;1287;65625;-31
2022/03/24 01:48:50;;;;;;;13.00;11.50;;;;;;-10253.80;;;;105919;1288;66288;-31
2022/03/24 01:51:18;;;;;;;13.40;11.50;;;;;;-10129.49;;;;105909;1287;65733;-31
2022/03/24 01:53:46;;;;;;;13.00;11.30;;;;;;-10129.49;;;;106045;1287;66021;-32
2022/03/24 01:56:13;;;;;;;11.90;10.60;;;;;;-10005.19;;;;105919;1289;65713;-32
2022/03/24 01:58:41;;;;;;;12.70;11.20;;;;;;-10129.49;;;;106058;1287;65587;-32
2022/03/24 02:01:34;;;;;;;12.60;11.00;;;;;;-10129.49;;;;106042;1287;65436;-32
2022/03/24 02:04:06;;;;;;;12.70;11.20;;;;;;-10005.19;;;;106059;1287;65698;-32
2022/03/24 02:06:35;;;;;;;12.80;10.80;;;;;;-10502.40;;;;106059;1287;65728;-42
2022/03/24 02:09:04;;;;;;;12.10;10.50;;;;;;-10253.80;;;;106071;1287;65617;-36
2022/03/24 02:11:33;;;;;;;13.30;11.10;;;;;;-10253.80;;;;105707;1287;65722;-32
2022/03/24 02:14:03;;;;;;;11.40;10.10;;;;;;-10378.10;;;;105918;1290;65569;-32
2022/03/24 02:16:34;;;;;;;12.80;10.80;;;;;;-10129.49;;;;106065;1287;65622;-30
2022/03/24 02:19:16;;;;;;;12.00;10.70;;;;;;-10005.19;;;;106049;1287;65717;-31
2022/03/24 02:21:48;;;;;;;12.60;11.00;;;;;;-10129.49;;;;106117;1287;65623;-33
2022/03/24 02:24:19;;;;;;;13.40;11.50;;;;;;-10129.49;;;;105920;1288;65616;-32
2022/03/24 02:26:48;;;;;;;12.20;10.70;;;;;;-10129.49;;;;106052;1287;65720;-33
2022/03/24 02:29:18;;;;;;;12.50;10.70;;;;;;-10253.80;;;;105919;1287;65739;-32
2022/03/24 02:31:48;;;;;;;13.40;10.80;;;;;;-10378.10;;;;106059;1287;65811;-32
2022/03/24 02:34:37;;;;;;;13.10;11.20;;;;;;-10005.19;;;;106066;1287;65635;-31
2022/03/24 02:37:17;;;;;;;12.40;11.10;;;;;;-10129.49;;;;106041;1287;65785;-36
2022/03/24 02:39:52;;;;;;;13.30;10.70;;;;;;-10005.19;;;;106030;1288;65846;-36
2022/03/24 02:42:22;;;;;;;12.70;11.10;;;;;;-10253.80;;;;106085;1287;65614;-32
2022/03/24 02:44:53;;;;;;;11.70;10.40;;;;;;-10129.49;;;;105843;1289;65673;-30
2022/03/24 02:47:21;;;;;;;12.20;10.70;;;;;;-10378.10;;;;106079;1287;65609;-36
2022/03/24 02:49:52;;;;;;;12.80;11.10;;;;;;-10005.19;;;;106078;1287;65652;-35
2022/03/24 02:52:19;;;;;;;12.20;10.90;;;;;;-10005.19;;;;106054;1287;65611;-32
2022/03/24 02:54:46;;;;;;;12.50;11.20;;;;;;-10378.10;;;;105995;1287;65785;-43
2022/03/24 02:57:13;;;;;;;13.40;10.70;;;;;;-10129.49;;;;106049;1287;65694;-31
2022/03/24 02:59:41;;;;;;;13.40;11.70;;;;;;-10129.49;;;;106057;1288;65707;-31
2022/03/24 03:02:13;;;;;;;12.40;10.50;;;;;;-10129.49;;;;106076;1288;65623;-31
2022/03/24 03:04:43;;;;;;;12.90;11.40;;;;;;-10129.49;;;;105886;1288;65783;-31
2022/03/24 03:07:11;;;;;;;13.30;11.90;;;;;;-10129.49;;;;106024;1287;65626;-32
2022/03/24 03:09:42;;;;;;;13.80;11.70;;;;;;-10253.80;;;;106035;1287;65702;-32
2022/03/24 03:12:11;;;;;;;13.20;11.50;;;;;;-10253.80;;;;106051;1288;65699;-36
2022/03/24 03:14:39;;;;;;;13.80;10.70;;;;;;-10129.49;;;;105926;1290;65735;-36
2022/03/24 03:17:08;;;;;;;12.80;11.20;;;;;;-10129.49;;;;106086;1287;65588;-36
2022/03/24 03:19:36;;;;;;;13.00;11.80;;;;;;-10129.49;;;;106035;1287;65618;-35
2022/03/24 03:22:04;;;;;;;13.60;12.20;;;;;;-10005.19;;;;106028;1288;65727;-31
2022/03/24 03:24:32;;;;;;;12.70;11.30;;;;;;-10129.49;;;;106080;1287;65716;-31
2022/03/24 03:27:00;;;;;;;13.30;11.70;;;;;;-10253.80;;;;106076;1288;65969;-36
2022/03/24 03:29:27;;;;;;;13.40;12.00;;;;;;-10253.80;;;;105921;1287;65693;-37
2022/03/24 03:31:55;;;;;;;12.90;11.40;;;;;;-10378.10;;;;106077;1287;65716;-37
2022/03/24 03:34:24;;;;;;;12.80;11.40;;;;;;-10005.19;;;;106071;1287;66040;-36
2022/03/24 03:36:54;;;;;;;13.10;11.70;;;;;;-10378.10;;;;106089;1287;65742;-32
2022/03/24 03:39:25;;;;;;;13.40;11.30;;;;;;-10253.80;;;;106095;1287;65585;-32
2022/03/24 03:41:54;;;;;;;14.00;12.40;;;;;;-10253.80;;;;106066;1287;65605;-38
2022/03/24 03:44:22;;;;;;;13.80;12.00;;;;;;-10253.80;;;;106072;1287;65732;-36
2022/03/24 03:46:50;;;;;;;13.60;12.00;;;;;;-10005.19;;;;106079;1288;65826;-29
2022/03/24 03:49:18;;;;;;;14.40;12.90;;;;;;-10502.40;;;;105908;1287;65602;-31
2022/03/24 03:51:45;;;;;;;13.30;11.70;;;;;;-10253.80;;;;106082;1287;65666;-31
2022/03/24 03:54:12;;;;;;;13.00;11.60;;;;;;-10129.49;;;;106090;1287;65868;-31
2022/03/24 03:56:40;;;;;;;12.40;10.90;;;;;;-10005.19;;;;106069;1287;65696;-37
2022/03/24 03:59:08;;;;;;;13.00;11.70;;;;;;-10253.80;;;;106059;1287;65715;-36
2022/03/24 04:01:37;;;;;;;13.30;11.80;;;;;;-10129.49;;;;106100;1287;65891;-36
2022/03/24 04:04:07;;;;;;;14.00;12.30;;;;;;-10502.40;;;;105938;1287;65661;-36
2022/03/24 04:06:34;;;;;;;12.10;10.90;;;;;;-10129.49;;;;106083;1287;65649;-43
2022/03/24 04:09:01;;;;;;;13.50;11.60;;;;;;-10253.80;;;;106067;1287;66323;-36
2022/03/24 04:11:29;;;;;;;13.90;12.50;;;;;;-10253.80;;;;105866;1287;64430;-31
2022/03/24 04:13:56;;;;;;;13.50;12.10;;;;;;-10129.49;;;;105944;1290;66393;-31
2022/03/24 04:16:23;;;;;;;12.80;11.50;;;;;;-10253.80;;;;106071;1287;65621;-31
2022/03/24 04:18:51;;;;;;;14.20;12.40;;;;;;-10253.80;;;;106071;1287;65615;-32
2022/03/24 04:21:19;;;;;;;12.60;11.30;;;;;;-10129.49;;;;106079;1287;65472;-32
2022/03/24 04:23:49;;;;;;;13.10;11.70;;;;;;-10129.49;;;;106084;1287;65711;-32
2022/03/24 04:26:16;;;;;;;14.00;12.50;;;;;;-10005.19;;;;105940;1287;270981;-36
2022/03/24 04:28:43;;;;;;;13.50;12.10;;;;;;-10253.80;;;;106107;1287;65778;-35
2022/03/24 04:31:12;;;;;;;13.40;12.00;;;;;;-10253.80;;;;106096;1287;65752;-32
2022/03/24 04:33:40;;;;;;;14.50;12.40;;;;;;-10129.49;;;;106093;1287;65608;-31
2022/03/24 04:36:08;;;;;;;14.50;13.00;;;;;;-10005.19;;;;106083;1287;65575;-31
2022/03/24 04:38:37;;;;;;;14.90;12.90;;;;;;-10253.80;;;;106111;1287;65736;-31
2022/03/24 04:41:05;;;;;;;13.80;12.30;;;;;;-10253.80;;;;106127;1287;65735;-36
2022/03/24 04:43:34;;;;;;;13.90;12.40;;;;;;-10253.80;;;;106081;1287;65600;-37
2022/03/24 04:46:01;;;;;;;13.20;11.80;;;;;;-10005.19;;;;106112;1287;65692;-32
2022/03/24 04:48:35;;;;;;;14.20;12.60;;;;;;-10129.49;;;;106078;1287;65601;-30
2022/03/24 04:51:05;;;;;;;14.20;12.20;;;;;;-10129.49;;;;105918;1287;65690;-32
2022/03/24 04:53:34;;;;;;;14.70;13.00;;;;;;-10253.80;;;;106082;1287;65685;-30
2022/03/24 04:56:01;;;;;;;14.90;13.30;;;;;;-10253.80;;;;106085;1287;66074;-32
2022/03/24 04:58:28;;;;;;;14.30;12.80;;;;;;-10005.19;;;;106074;1287;65602;-32
2022/03/24 05:00:56;;;;;;;14.20;12.70;;;;;;-10502.40;;;;106035;1287;65584;-34
2022/03/24 05:03:23;;;;;;;15.30;13.60;;;;;;-10253.80;;;;105696;1287;65732;-36
2022/03/24 05:05:50;;;;;;;14.60;12.90;;;;;;-10129.49;;;;106065;1287;65822;-36
2022/03/24 05:08:17;;;;;;;14.80;13.00;;;;;;-10005.19;;;;106050;1287;65714;-36
2022/03/24 05:10:45;;;;;;;14.50;13.00;;;;;;-10129.49;;;;106084;1287;65682;-36
2022/03/24 05:13:12;;;;;;;14.80;13.00;;;;;;-10129.49;;;;106083;1288;66775;-35
2022/03/24 05:15:39;;;;;;;14.90;13.30;;;;;;-10129.49;;;;106102;1287;65585;-31
2022/03/24 05:18:06;;;;;;;14.60;13.10;;;;;;-10005.19;;;;106097;1287;65612;-31
2022/03/24 05:20:33;;;;;;;15.10;13.40;;;;;;-10129.49;;;;106099;1287;65627;-35
2022/03/24 05:23:01;;;;;;;14.40;12.90;;;;;;-10005.19;;;;106084;1287;65617;-35
2022/03/24 05:25:29;;;;;;;15.00;12.80;;;;;;-10129.49;;;;105850;1287;65624;-37
2022/03/24 05:27:57;;;;;;;15.80;13.70;;;;;;-10129.49;;;;105873;1287;65866;-36
2022/03/24 05:30:24;;;;;;;15.50;13.90;;;;;;-10005.19;;;;106114;1287;65622;-34
2022/03/24 05:32:52;;;;;;;14.90;13.40;;;;;;-10253.80;;;;106045;1287;65585;-37
2022/03/24 05:35:19;;;;;;;14.20;12.80;;;;;;-10129.49;;;;106081;1287;65752;-35
2022/03/24 05:37:46;;;;;;;15.70;14.10;;;;;;-10378.10;;;;106098;1287;65719;-35
2022/03/24 05:40:13;;;;;;;15.30;13.40;;;;;;-10129.49;;;;106104;1287;65751;-36
2022/03/24 05:42:40;;;;;;;14.90;13.40;;;;;;-10005.19;;;;106090;1287;65634;-36
2022/03/24 05:45:08;;;;;;;14.80;13.20;;;;;;-10253.80;;;;106076;1287;65697;-37
2022/03/24 05:47:36;;;;;;;16.50;13.40;;;;;;-10253.80;;;;106093;1287;65705;-32
2022/03/24 05:50:04;;;;;;;14.90;13.30;;;;;;-10129.49;;;;106055;1287;65718;-34
2022/03/24 05:52:31;;;;;;;14.60;13.10;;;;;;-10005.19;;;;106147;1287;65576;-32
2022/03/24 05:54:58;;;;;;;14.90;13.20;;;;;;-10129.49;;;;106121;1287;65587;-32
2022/03/24 05:57:26;;;;;;;15.10;13.10;;;;;;-10253.80;;;;106094;1287;65671;-31
2022/03/24 05:59:53;;;;;;;15.10;13.50;;;;;;-10129.49;;;;105938;1287;65662;-30
2022/03/24 06:02:21;;;;;;;15.20;13.60;;;;;;-10253.80;;;;106084;1287;65632;-36
2022/03/24 06:04:49;;;;;;;15.00;13.50;;;;;;-10253.80;;;;106091;1287;65787;-36
2022/03/24 06:07:17;;;;;;;15.00;13.20;;;;;;-10129.49;;;;106108;1287;65606;-32
2022/03/24 06:09:49;;;;;;;15.30;13.70;;;;;;-10253.80;;;;105903;1288;65732;-32
2022/03/24 06:12:17;;;;;;;15.00;13.40;;;;;;-10378.10;;;;105909;1288;65710;-34
2022/03/24 06:14:44;;;;;;;15.20;13.50;;;;;;-10129.49;;;;106100;1287;65725;-42
2022/03/24 06:17:11;;;;;;;15.90;14.00;;;;;;-10502.40;;;;105900;1287;65848;-32
2022/03/24 06:19:39;;;;;;;16.00;14.30;;;;;;-10129.49;;;;106144;1287;67269;-32
2022/03/24 06:22:07;;;;;;;14.80;13.20;;;;;;-10129.49;;;;106110;1287;65617;-36
2022/03/24 06:24:35;;;;;;;15.90;13.40;;;;;;-10253.80;;;;106113;1287;65687;-36
2022/03/24 06:27:02;;;;;;;14.70;13.20;;;;;;-10253.80;;;;106084;1287;65732;-37
2022/03/24 06:29:29;;;;;;;15.80;13.70;;;;;;-10005.19;;;;106093;1287;65635;-36
2022/03/24 06:31:57;;;;;;;16.20;14.40;;;;;;-10129.49;;;;105932;1287;65625;-32
2022/03/24 06:34:25;;;;;;;15.70;14.00;;;;;;-10253.80;;;;106141;1287;66037;-31
2022/03/24 06:36:54;;;;;;;17.30;14.00;;;;;;-10005.19;;;;106090;1287;65585;-32
2022/03/24 06:39:22;;;;;;;15.50;13.90;;;;;;-10378.10;;;;105842;1287;65824;-31
2022/03/24 06:41:49;;;;;;;15.40;13.90;;;;;;-10129.49;;;;106148;1287;65607;-33
2022/03/24 06:44:16;;;;;;;16.80;14.80;;;;;;-10378.10;;;;105929;1290;65702;-32
2022/03/24 06:46:44;;;;;;;15.40;13.80;;;;;;-10129.49;;;;105888;1288;65732;-31
2022/03/24 06:49:11;;;;;;;15.80;14.20;;;;;;-10378.10;;;;106097;1287;65758;-31
2022/03/24 06:51:39;;;;;;;16.20;14.50;;;;;;-10253.80;;;;106094;1287;65748;-36
2022/03/24 06:54:06;;;;;;;16.50;14.80;;;;;;-10005.19;;;;105883;1287;65888;-36
2022/03/24 06:56:34;;;;;;;16.10;13.60;;;;;;-10253.80;;;;105871;1288;65651;-32
2022/03/24 06:59:01;;;;;;;15.70;13.80;;;;;;-10005.19;;;;106130;1287;65714;-33
2022/03/24 07:01:28;;;;;;;14.70;13.10;;;;;;-10253.80;;;;106112;1287;65601;-32
2022/03/24 07:03:56;;;;;;;15.20;13.60;;;;;;-10379.31;;;;106081;1287;65611;-31
2022/03/24 07:06:23;;;;;;;15.50;14.00;;;;;;-10503.01;;;;106141;1287;65680;-36
2022/03/24 07:08:51;;;;;;;16.20;14.60;;;;;;-10379.31;;;;106148;1287;65630;-38
2022/03/24 07:11:18;;;;;;;16.00;14.20;;;;;;-10255.62;;;;105913;1288;65643;-32
2022/03/24 07:13:46;;;;;;;15.70;14.10;;;;;;-10379.31;;;;106114;1286;65753;-36
2022/03/24 07:16:13;;;;;;;15.10;13.50;;;;;;-10255.62;;;;106114;1287;65636;-34
2022/03/24 07:18:40;;;;;;;16.00;14.30;;;;;;-10131.92;;;;105941;1287;65695;-37
2022/03/24 07:21:07;;;;;;;15.80;14.20;;;;;;-10131.92;;;;106138;1287;65852;-41
2022/03/24 07:23:35;;;;;;;15.30;13.70;;;;;;-10008.22;;;;105866;1286;66040;-37
2022/03/24 07:26:03;;;;;;;15.70;14.00;;;;;;-10131.92;;;;106130;1287;65703;-34
2022/03/24 07:28:30;;;;;;;15.80;14.10;;;;;;-10255.62;;;;106108;1287;65595;-33
2022/03/24 07:30:57;;;;;;;15.40;13.90;;;;;;-10131.92;;;;105909;1288;65603;-38
2022/03/24 07:33:24;;;;;;;15.60;14.00;;;;;;-10131.92;;;;105932;1288;65548;-32
2022/03/24 07:35:51;;;;;;;15.10;13.70;;;;;;-10008.22;;;;105937;1287;65787;-36
2022/03/24 07:38:19;;;;;;;15.30;13.70;;;;;;-10255.62;;;;105901;1287;65654;-36
2022/03/24 07:40:46;;;;;;;15.40;13.50;;;;;;-10255.62;;;;106191;1287;65587;-35
2022/03/24 07:43:14;;;;;;;15.10;13.20;;;;;;-10131.92;;;;106120;1287;65480;-36
2022/03/24 07:45:41;;;;;;;15.10;13.50;;;;;;-10255.62;;;;106270;1287;65689;-32
2022/03/24 07:48:17;;;;;;;15.60;13.90;;;;;;-10255.62;;;;106200;1287;65730;-33
2022/03/24 07:50:48;;;;;;;14.60;13.10;;;;;;-10131.92;;;;106219;1287;65758;-32
2022/03/24 07:53:15;;;;;;;15.00;13.40;;;;;;-10379.31;;;;106228;1287;65624;-36
2022/03/24 07:55:45;;;;;;;15.80;14.20;;;;;;-10131.92;;;;106116;1287;65604;-36
2022/03/24 07:58:15;;;;;;;14.30;12.90;;;;;;-10008.22;;;;106191;1287;65734;-36
2022/03/24 08:00:43;;;;;;;14.80;13.30;;;;;;-10379.31;;;;106206;1286;65601;-32
2022/03/24 08:03:17;;;;;;;14.00;12.60;;;;;;-10255.62;;;;106148;1287;65707;-40
2022/03/24 08:05:45;;;;;;;15.50;13.70;;;;;;-10131.92;;;;106082;1287;65661;-31
2022/03/24 08:08:14;;;;;;;14.20;12.70;;;;;;-10131.92;;;;106230;1287;65700;-32
2022/03/24 08:10:44;;;;;;;14.60;13.10;;;;;;-10255.62;;;;106233;1287;66102;-32
2022/03/24 08:13:14;;;;;;;13.60;12.30;;;;;;-10131.92;;;;106180;1287;65718;-33
2022/03/24 08:15:42;;;;;;;13.70;12.30;;;;;;-10255.62;;;;106156;1288;65584;-39
2022/03/24 08:18:10;;;;;;;13.90;12.50;;;;;;-10131.92;;;;106156;1287;65757;-36
2022/03/24 08:20:38;;;;;;;13.50;12.20;;;;;;-10379.31;;;;106110;1287;65728;-36
2022/03/24 08:23:08;;;;;;;13.40;12.00;;;;;;-10131.92;;;;106105;1287;65844;-35
2022/03/24 08:25:38;;;;;;;13.50;11.90;;;;;;-10255.62;;;;106151;1287;65617;-36
2022/03/24 08:28:07;;;;;;;12.80;11.50;;;;;;-10008.22;;;;106158;1287;65738;-36
2022/03/24 08:30:34;;;;;;;13.10;11.70;;;;;;-10255.62;;;;106110;1287;65583;-31
2022/03/24 08:33:02;;;;;;;13.70;12.30;;;;;;-10131.92;;;;105836;1289;65583;-33
2022/03/24 08:35:28;;;;;;;12.20;10.90;;;;;;-10008.22;;;;106138;1287;65754;-32
2022/03/24 08:37:55;;;;;;;12.40;11.10;;;;;;-10131.92;;;;106130;1287;65602;-32
2022/03/24 08:40:23;;;;;;;13.00;11.10;;;;;;-10131.92;;;;106139;1287;65688;-35
2022/03/24 08:42:50;;;;;;;12.70;11.40;;;;;;-10131.92;;;;106149;1287;65678;-35
2022/03/24 08:45:18;;;;;;;12.20;10.60;;;;;;-10255.62;;;;106164;1287;65592;-35
2022/03/24 08:47:46;;;;;;;12.20;10.90;;;;;;-10379.31;;;;106191;1288;65663;-41
2022/03/24 08:50:15;;;;;;;12.30;11.00;;;;;;-10131.92;;;;105901;1288;65653;-33
2022/03/24 08:52:42;;;;;;;11.90;10.60;;;;;;-10131.92;;;;106140;1287;65724;-36
2022/03/24 08:55:13;;;;;;;11.80;10.70;;;;;;-10379.31;;;;105905;1287;65604;-36
2022/03/24 08:57:43;;;;;;;11.50;10.30;;;;;;-10131.92;;;;106084;1287;65771;-36
2022/03/24 09:00:13;;;;;;;12.50;10.20;;;;;;-10379.31;;;;106153;1287;65604;-36
2022/03/24 09:02:51;;;;;;;10.80;9.70;;;;;;-10255.62;;;;106081;1287;65673;-38
2022/03/24 09:05:19;;;;;;;12.10;10.30;;;;;;-10255.62;;;;106152;1288;65534;-37
2022/03/24 09:07:47;;;;;;;11.70;10.50;;;;;;-10131.92;;;;106079;1287;65690;-36
2022/03/24 09:10:15;;;;;;;11.00;9.90;;;;;;-10255.62;;;;106210;1287;65776;-35
2022/03/24 09:12:46;;;;;;;11.40;10.20;;;;;;-10255.62;;;;106132;1287;65606;-32
2022/03/24 09:15:18;;;;;;;12.10;10.30;;;;;;-10255.62;;;;106174;1287;65843;-31
2022/03/24 09:17:47;;;;;;;11.00;9.50;;;;;;-10379.31;;;;105936;1287;65722;-33
2022/03/24 09:20:18;;;;;;;11.00;9.70;;;;;;-10379.31;;;;106078;1287;65839;-31
2022/03/24 09:22:48;;;;;;;11.20;9.10;;;;;;-10255.62;;;;106120;1287;65625;-32
2022/03/24 09:25:18;;;;;;;11.50;9.70;;;;;;-10255.62;;;;105854;1288;66216;-34
2022/03/24 09:27:46;;;;;;;10.30;9.00;;;;;;-10008.22;;;;105815;1288;65642;-32
2022/03/24 09:30:18;;;;;;;11.70;9.20;;;;;;-10379.31;;;;105908;1288;65758;-32
2022/03/24 09:32:52;;;;;;;10.20;9.20;;;;;;-10008.22;;;;105896;1288;65607;-30
2022/03/24 09:35:20;;;;;;;10.70;8.50;;;;;;-10255.62;;;;105853;1289;66790;-29
2022/03/24 09:37:47;;;;;;;10.90;9.20;;;;;;-10008.22;;;;105794;1288;65712;-32
2022/03/24 09:40:16;;;;;;;9.90;8.40;;;;;;-10131.92;;;;106067;1287;65581;-32
2022/03/24 09:42:43;;;;;;;10.50;8.90;;;;;;-10131.92;;;;105838;1288;65815;-34
2022/03/24 09:45:13;;;;;;;10.50;8.40;;;;;;-10255.62;;;;105859;1287;65748;-37
2022/03/24 09:47:42;;;;;;;10.70;8.50;;;;;;-10131.92;;;;106142;1287;65590;-30
2022/03/24 09:50:12;;;;;;;9.70;7.70;;;;;;-10131.92;;;;106120;1287;65750;-27
2022/03/24 09:52:41;;;;;;;9.50;8.10;;;;;;-10255.62;;;;105802;1290;66313;-30
2022/03/24 09:55:10;;;;;;;9.50;7.40;;;;;;-10255.62;;;;105863;1288;65601;-31
2022/03/24 09:57:37;;;;;;;9.40;8.40;;;;;;-10255.62;;;;105827;1290;65697;-30
2022/03/24 10:00:06;;;;;;;10.10;7.40;;;;;;-10255.62;;;;105906;1287;65718;-31
2022/03/24 10:02:34;;;;;;;9.00;7.00;;;;;;-10008.22;;;;105933;1287;65728;-30
2022/03/24 10:05:03;;;;;;;10.30;6.90;;;;;;-10379.31;;;;105815;1289;65825;-30
2022/03/24 10:07:46;;;;;;;8.10;6.80;;;;;;-10131.92;;;;105803;1290;65678;-36
2022/03/24 10:10:25;;;;;;;9.30;6.70;;;;;;-10379.31;;;;105913;1286;66149;-30
2022/03/24 10:12:53;;;;;;;8.10;7.00;;;;;;-10131.92;;;;105900;1287;65649;-34
2022/03/24 10:15:20;;;;;;;9.50;7.00;;;;;;-10255.62;;;;105803;1290;65698;-31
2022/03/24 10:17:53;;;;;;;9.10;7.50;;;;;;-10131.92;;;;105894;1288;65731;-33
2022/03/24 10:20:21;;;;;;;8.40;6.90;;;;;;-10131.92;;;;105886;1287;65745;-39
2022/03/24 10:23:00;;;;;;;9.10;7.00;;;;;;-10255.62;;;;105924;1287;65616;-32
2022/03/24 10:25:31;;;;;;;8.60;6.80;;;;;;-10503.01;;;;105820;1288;65752;-32
2022/03/24 10:28:12;;;;;;;9.10;6.70;;;;;;-10379.31;;;;105839;1290;67011;-33
2022/03/24 10:30:49;;;;;;;8.20;6.30;;;;;;-10379.31;;;;105875;1287;65601;-32
2022/03/24 10:33:45;;;;;;;7.90;6.30;;;;;;-10503.01;;;;105901;1288;66688;-32
2022/03/24 10:36:16;;;;;;;7.50;6.70;;;;;;-10379.31;;;;105839;1290;65660;-32
2022/03/24 10:38:45;;;;;;;8.10;6.10;;;;;;-10255.62;;;;105939;1288;65631;-32
2022/03/24 10:41:22;;;;;;;8.70;5.70;;;;;;-10255.62;;;;105932;1287;65935;-33
2022/03/24 10:43:52;;;;;;;7.30;6.10;;;;;;-10379.31;;;;105875;1288;65616;-33
2022/03/24 10:46:43;;;;;;;8.80;6.20;;;;;;-10379.31;;;;105813;1290;65707;-31
2022/03/24 10:49:25;;;;;;;8.00;6.10;;;;;;-10131.92;;;;105906;1288;65528;-29
2022/03/24 10:51:54;;;;;;;7.40;6.30;;;;;;-10379.31;;;;105866;1290;65742;-28
2022/03/24 10:54:26;;;;;;;7.70;6.10;;;;;;-10131.92;;;;105942;1288;65821;-29
2022/03/24 10:57:02;;;;;;;7.60;5.70;;;;;;-10255.62;;;;105897;1288;65616;-30
2022/03/24 10:59:36;;;;;;;7.40;6.10;;;;;;-10008.22;;;;105811;1290;65861;-32
2022/03/24 11:02:03;;;;;;;7.40;6.10;;;;;;-10131.92;;;;105881;1288;65596;-31
2022/03/24 11:04:30;;;;;;;7.20;5.50;;;;;;-10131.92;;;;105902;1287;65722;-30
2022/03/24 11:06:57;;;;;;;7.80;5.80;;;;;;-10255.62;;;;105831;1290;65623;-31
2022/03/24 11:09:33;;;;;;;7.70;5.50;;;;;;-10379.31;;;;105773;1290;65613;-32
2022/03/24 11:12:31;;;;;;;10.10;5.70;;;;;;-10131.92;;;;105842;1288;66123;-31
2022/03/24 11:15:05;;;;;;;8.50;5.90;;;;;;-10131.92;;;;105869;1288;65717;-36
2022/03/24 11:17:35;;;;;;;7.50;5.80;;;;;;-10008.22;;;;105920;1288;65623;-32
2022/03/24 11:20:15;;;;;;;7.10;5.20;;;;;;-10131.92;;;;105932;1288;65753;-30
2022/03/24 11:23:02;;;;;;;7.10;5.30;;;;;;-10255.62;;;;105908;1288;65828;-31
2022/03/24 11:25:30;;;;;;;7.10;5.00;;;;;;-10131.92;;;;106021;1287;65577;-37
2022/03/24 11:27:57;;;;;;;8.30;5.50;;;;;;-10255.62;;;;106095;1287;65728;-33
2022/03/24 11:30:25;;;;;;;6.90;5.40;;;;;;-10255.62;;;;106075;1287;65620;-29
2022/03/24 11:32:54;;;;;;;6.50;4.90;;;;;;-10255.62;;;;106113;1287;65602;-36
2022/03/24 11:35:22;;;;;;;6.80;5.00;;;;;;-10255.62;;;;106070;1287;65644;-35
2022/03/24 11:37:50;;;;;;;7.60;4.80;;;;;;-10131.92;;;;106081;1287;65711;-33
2022/03/24 11:40:26;;;;;;;8.30;5.30;;;;;;-10255.62;;;;105803;1287;66281;-33
2022/03/24 11:43:00;;;;;;;6.90;5.00;;;;;;-10131.92;;;;106101;1287;65578;-32
2022/03/24 11:45:41;;;;;;;7.20;4.60;;;;;;-10255.62;;;;106103;1287;65588;-30
2022/03/24 11:48:12;;;;;;;7.10;5.20;;;;;;-10131.92;;;;106067;1287;65605;-30
2022/03/24 11:50:54;;;;;;;6.20;4.30;;;;;;-10131.92;;;;105884;1288;65595;-29
2022/03/24 11:53:25;;;;;;;6.90;5.00;;;;;;-10255.62;;;;105825;1288;65697;-28
2022/03/24 11:56:02;;;;;;;8.40;5.20;;;;;;-10131.92;;;;106089;1287;65723;-34
2022/03/24 11:58:38;;;;;;;6.20;4.60;;;;;;-10131.92;;;;106086;1288;66937;-30
2022/03/24 12:01:21;;;;;;;6.30;4.80;;;;;;-10008.22;;;;105847;1288;65803;-30
2022/03/24 12:03:54;;;;;;;7.30;4.90;;;;;;-10379.31;;;;106105;1287;65575;-29
2022/03/24 12:06:46;;;;;;;6.10;4.80;;;;;;-10131.92;;;;105844;1288;65530;-32
2022/03/24 12:09:17;;;;;;;6.40;4.90;;;;;;-10008.22;;;;105970;1287;65574;-32
2022/03/24 12:11:50;;;;;;;6.80;5.00;;;;;;-10379.31;;;;105879;1288;65879;-29
2022/03/24 12:14:42;;;;;;;6.30;4.00;;;;;;-10379.31;;;;106113;1287;65586;-30
2022/03/24 12:17:22;;;;;;;6.60;4.60;;;;;;-10379.31;;;;105871;1288;65626;-30
2022/03/24 12:19:54;;;;;;;6.50;4.70;;;;;;-10008.22;;;;105823;1288;65840;-30
2022/03/24 12:22:31;;;;;;;9.60;4.90;;;;;;-10131.92;;;;106074;1287;66863;-33
2022/03/24 12:25:01;;;;;;;7.50;4.40;;;;;;-10131.92;;;;106082;1287;66457;-34
2022/03/24 12:27:57;;;;;;;6.30;4.70;;;;;;-10131.92;;;;105891;1287;283943;-32
2022/03/24 12:30:26;;;;;;;6.80;4.80;;;;;;-10255.62;;;;105858;1288;65725;-33
2022/03/24 12:33:14;;;;;;;6.40;4.10;;;;;;-10255.62;;;;105809;1288;65736;-33
2022/03/24 12:35:44;;;;;;;6.30;4.10;;;;;;-10503.01;;;;106072;1287;65589;-31
2022/03/24 12:38:35;;;;;;;5.70;4.00;;;;;;-10131.92;;;;106054;1287;67017;-34
2022/03/24 12:41:06;;;;;;;6.40;4.50;;;;;;-10255.62;;;;106059;1287;65725;-30
2022/03/24 12:44:05;;;;;;;7.90;4.50;;;;;;-10131.92;;;;106062;1287;65605;-32
2022/03/24 12:46:46;;;;;;;6.80;5.00;;;;;;-10131.92;;;;106069;1287;65716;-33